Rain radar more information rain snow radar


Visit our other weather sites:

Template documentation
and downloads

And another site



Nearby METAR Reports

   
KTIW - Tacoma, Washington, USA
Distance from station: W 7 mi
Updated: May 13 2021 8:53 pm
Clear  
Clear  
   Wind: NNE 6.9 mph
Wind: NNE 6.9 mph
Temperature: 62.6°F
Dew Point: 42.8°F
Humidity: 49%
Barometer: 30.13 inHg
Clouds: Clear
Visibility: 10 mi
Cloud details: Clear m
KTIW 140353Z AUTO 03006KT 10SM CLR 17/06 A3013 RMK AO2 SLP201 T01670061
KTCM - Tacoma/Mc Chord, Washington, USA
Distance from station: S 9 mi
Updated: May 13 2021 8:58 pm
Clear  
Clear  
   Wind: North 5.8 mph
Wind: North 5.8 mph
Temperature: 62.6°F
Dew Point: 42.8°F
Humidity: 49%
Barometer: 30.12 inHg
Clouds: Clear
Visibility: 10 mi
Cloud details: Clear m
KTCM 140358Z 35005KT 10SM CLR 17/06 A3012 RMK AO2A T01740060 $
KSEA - Seattle/Metro, Washington, USA
Distance from station: NNE 15 mi
Updated: May 13 2021 8:53 pm
Few Clouds  
Few Clouds  
   Wind: NNW 6.9 mph
Wind: NNW 6.9 mph
Temperature: 62.6°F
Dew Point: 44.6°F
Humidity: 52%
Barometer: 30.13 inHg
Clouds: Few Clouds
Visibility: 10 mi
Cloud details: Few Clouds 7620 m
KSEA 140353Z 34006KT 10SM FEW250 17/07 A3013 RMK AO2 SLP210 T01670072
KBFI - Seattle/Boeing, Washington, USA
Distance from station: NNE 21 mi
Updated: May 13 2021 8:53 pm
Clear  
Clear  
   Wind: NW 5.8 mph
Wind: NW 5.8 mph
Temperature: 64.4°F
Dew Point: 44.6°F
Humidity: 49%
Barometer: 30.12 inHg
Clouds: Clear
Visibility: 10 mi
Cloud details: Clear m
KBFI 140353Z 31005KT 10SM CLR 18/07 A3012 RMK AO2 SLP199 T01830067 $
KOLM - Olympia, Washington, USA
Distance from station: SW 29 mi
Updated: May 13 2021 8:54 pm
Clear  
Clear  
   Wind: NE 6.9 mph
Wind: NE 6.9 mph
Temperature: 64.4°F
Dew Point: 39.2°F
Humidity: 40%
Barometer: 30.12 inHg
Clouds: Clear
Visibility: 10 mi
Cloud details: Clear m
KOLM 140354Z AUTO 04006KT 10SM CLR 18/04 A3012 RMK AO2 SLP200 T01830039
 

Script developed by  Saratoga-weather.org Adapted for the template by  Weerstation Leuven

You find our weather info also at:

Weather Underground

WeatherlinkIP

Citizen Weather Observer Program (CWOP)

Equipment we use:

Weather-station
Davis VP2

Weather-program
Meteobridge

Provider
MDD Hosting

Davis VP2

Meteobridge

MDD Hosting